Terminal Aerodrome Forecast
Issued by NWS Cleveland, OH

Home | Current Version | Previous Version | Graphics & Text | Print | Product List | Glossary On
Versions: 1 2 3 4 5 6 7 8 9 10 11 12 13 14 15 16 17 18 19
000
FTUS41 KCLE 222300
TAFCAK
TAF
KCAK 222340Z 2300/2324 23008KT P6SM SCT050
     FM231300 25008KT P6SM VCSH BKN050 OVC100
      TEMPO 2315/2319 30007KT 4SM -SHRA BKN014
     FM231900 32008KT P6SM BKN020 OVC030=

USA.gov is the U.S. government's official web portal to all federal, state and local government web resources and services.